Time;durP1;ratioP1;P1;durP2;ratioP2;P2;SDS_P1;SDS_P2;PMS_P1;PMS_P2;Temp;Humidity;BMP_temperature;BMP_pressure;BME280_temperature;BME280_humidity;BME280_pressure;Samples;Min_cycle;Max_cycle;Signal;HPM_P1;HPM_P2
2021/12/04 00:02:21;;;;;;;92.57;33.00;;;5.10;99.90;;;;;;5114102;28;20555;-70
2021/12/04 00:04:50;;;;;;;99.35;35.85;;;5.10;99.90;;;;;;5096068;28;20098;-70
2021/12/04 00:07:16;;;;;;;101.55;34.30;;;5.10;99.90;;;;;;5078934;28;20120;-70
2021/12/04 00:09:46;;;;;;;102.72;37.22;;;5.10;99.90;;;;;;5095824;28;20130;-70
2021/12/04 00:12:13;;;;;;;97.40;38.25;;;5.10;99.90;;;;;;5079421;28;20055;-70
2021/12/04 00:14:41;;;;;;;106.13;38.33;;;5.10;99.90;;;;;;5095812;28;20060;-70
2021/12/04 00:17:07;;;;;;;109.30;38.30;;;5.10;99.90;;;;;;5062212;28;20595;-70
2021/12/04 00:19:34;;;;;;;105.88;37.67;;;5.10;99.90;;;;;;5095708;28;20108;-70
2021/12/04 00:22:01;;;;;;;109.72;38.03;;;5.10;99.90;;;;;;5061901;28;20524;-69
2021/12/04 00:24:27;;;;;;;109.75;39.90;;;5.10;99.90;;;;;;5095829;28;20051;-70
2021/12/04 00:26:54;;;;;;;116.60;39.70;;;5.10;99.90;;;;;;5113555;28;20047;-70
2021/12/04 00:29:21;;;;;;;121.50;39.88;;;5.10;99.90;;;;;;5114069;28;20705;-70
2021/12/04 00:31:54;;;;;;;116.78;39.20;;;5.10;99.90;;;;;;5094432;28;20066;-69
2021/12/04 00:34:22;;;;;;;119.90;40.17;;;5.10;99.90;;;;;;5095283;28;20135;-70
2021/12/04 00:37:03;;;;;;;122.07;41.17;;;5.10;99.90;;;;;;5094834;28;20051;-71
2021/12/04 00:50:25;;;;;;;141.68;47.00;;;5.10;99.90;;;;;;5095015;28;20052;-70
2021/12/04 00:52:57;;;;;;;149.50;46.42;;;5.10;99.90;;;;;;5078100;28;20051;-70
2021/12/04 00:55:24;;;;;;;139.00;48.72;;;5.10;99.90;;;;;;5078256;28;20447;-70
2021/12/04 00:57:50;;;;;;;161.02;50.88;;;5.10;99.90;;;;;;5095195;28;20051;-70
2021/12/04 01:00:16;;;;;;;160.20;48.47;;;5.10;99.90;;;;;;5094956;28;20459;-71
2021/12/04 01:02:43;;;;;;;163.50;49.45;;;5.00;99.90;;;;;;5094020;28;20047;-70
2021/12/04 01:05:09;;;;;;;160.57;50.28;;;5.00;99.90;;;;;;5094955;28;20093;-71
2021/12/04 01:07:35;;;;;;;155.35;49.70;;;5.00;99.90;;;;;;5094849;28;20055;-70
2021/12/04 01:10:03;;;;;;;191.13;53.63;;;5.00;99.90;;;;;;5077628;28;20063;-70
2021/12/04 01:12:29;;;;;;;192.45;54.25;;;5.00;99.90;;;;;;5094771;28;20047;-70
2021/12/04 01:14:55;;;;;;;192.93;53.97;;;5.00;99.90;;;;;;5094593;28;20047;-71
2021/12/04 01:17:21;;;;;;;210.57;53.47;;;5.00;99.90;;;;;;5094781;28;20048;-70
2021/12/04 01:19:47;;;;;;;227.68;57.65;;;5.00;99.90;;;;;;5077452;28;20495;-70
2021/12/04 01:22:21;;;;;;;211.55;56.28;;;5.00;99.90;;;;;;5078508;28;20430;-70
2021/12/04 01:24:49;;;;;;;225.95;56.40;;;5.00;99.90;;;;;;5077694;28;20048;-70
2021/12/04 01:27:15;;;;;;;226.95;55.20;;;5.00;99.90;;;;;;5112606;28;20455;-70
2021/12/04 01:29:42;;;;;;;211.02;55.67;;;5.00;99.90;;;;;;5094356;28;20185;-70
2021/12/04 01:32:09;;;;;;;195.60;53.25;;;5.00;99.90;;;;;;5077454;28;20142;-70
2021/12/04 01:34:35;;;;;;;212.90;54.00;;;5.00;99.90;;;;;;5077450;28;20063;-70
2021/12/04 01:37:12;;;;;;;216.38;55.45;;;5.00;99.90;;;;;;5077758;28;20253;-69
2021/12/04 01:39:38;;;;;;;227.68;54.35;;;5.00;99.90;;;;;;5094127;28;20079;-69
2021/12/04 01:42:04;;;;;;;253.13;56.30;;;5.00;99.90;;;;;;5076846;28;20100;-70
2021/12/04 01:44:30;;;;;;;242.18;54.95;;;4.90;99.90;;;;;;5094386;28;20051;-70
2021/12/04 01:46:57;;;;;;;222.02;56.00;;;5.00;99.90;;;;;;5077249;28;20482;-70
2021/12/04 01:49:23;;;;;;;224.38;54.97;;;5.00;99.90;;;;;;5112304;28;20130;-70
2021/12/04 01:51:49;;;;;;;206.88;53.38;;;4.90;99.90;;;;;;5112243;28;20044;-70
2021/12/04 01:54:16;;;;;;;237.20;60.33;;;5.00;99.90;;;;;;5094314;28;20059;-69
2021/12/04 01:56:41;;;;;;;234.00;56.17;;;5.00;99.90;;;;;;5093967;28;20083;-70
2021/12/04 01:59:09;;;;;;;229.88;54.85;;;5.00;99.90;;;;;;5093922;28;20208;-70
2021/12/04 02:01:35;;;;;;;237.48;55.83;;;4.90;99.90;;;;;;5093471;28;20204;-70
2021/12/04 02:04:00;;;;;;;246.00;55.40;;;4.90;99.90;;;;;;5112415;28;20415;-69
2021/12/04 02:06:26;;;;;;;240.32;55.47;;;4.90;99.90;;;;;;5076893;28;20173;-70
2021/12/04 02:08:52;;;;;;;231.50;54.70;;;4.90;99.90;;;;;;5094012;28;20480;-70
2021/12/04 02:11:18;;;;;;;233.13;53.55;;;4.90;99.90;;;;;;5112074;28;20046;-70
2021/12/04 02:13:44;;;;;;;256.85;54.88;;;4.90;99.90;;;;;;5093695;28;20410;-70
2021/12/04 02:16:18;;;;;;;219.65;53.33;;;4.90;99.90;;;;;;5093897;28;20078;-70
2021/12/04 02:18:45;;;;;;;230.75;50.78;;;4.90;99.90;;;;;;5093717;28;20549;-70
2021/12/04 02:21:11;;;;;;;257.15;54.92;;;4.90;99.90;;;;;;5093466;28;20048;-71
2021/12/04 02:23:37;;;;;;;228.55;51.88;;;4.90;99.90;;;;;;5093596;28;20090;-71
2021/12/04 02:26:03;;;;;;;248.70;54.65;;;4.90;99.90;;;;;;5093613;28;20075;-70
2021/12/04 02:28:35;;;;;;;227.98;49.28;;;4.80;99.90;;;;;;5093236;28;20054;-70
2021/12/04 02:31:00;;;;;;;255.55;54.17;;;4.80;99.90;;;;;;5112024;28;20083;-70
2021/12/04 02:33:26;;;;;;;229.77;51.22;;;4.80;99.90;;;;;;5076915;28;20094;-71
2021/12/04 02:35:54;;;;;;;218.98;51.63;;;4.80;99.90;;;;;;5077008;28;20490;-74
2021/12/04 02:38:23;;;;;;;255.95;54.03;;;4.80;99.90;;;;;;5111741;28;20047;-71
2021/12/04 02:40:50;;;;;;;225.00;49.28;;;4.80;99.90;;;;;;5093510;28;20082;-69
2021/12/04 02:43:16;;;;;;;237.77;51.05;;;4.80;99.90;;;;;;5111679;28;20482;-69
2021/12/04 02:45:43;;;;;;;272.25;54.10;;;4.80;99.90;;;;;;5076548;28;20048;-70
2021/12/04 02:48:16;;;;;;;303.60;57.45;;;4.80;99.90;;;;;;5077120;28;20093;-69
2021/12/04 02:50:42;;;;;;;322.17;60.15;;;4.80;99.90;;;;;;5076742;28;20533;-69
2021/12/04 02:53:08;;;;;;;280.50;55.55;;;4.80;99.90;;;;;;5076268;28;20048;-69
2021/12/04 02:55:36;;;;;;;294.48;58.17;;;4.80;99.90;;;;;;5095905;28;20047;-70
2021/12/04 02:58:06;;;;;;;264.23;52.05;;;4.80;99.90;;;;;;5097580;28;20395;-69
2021/12/04 03:00:32;;;;;;;284.98;55.88;;;4.70;99.90;;;;;;5080745;28;20100;-69
2021/12/04 03:02:59;;;;;;;288.27;53.10;;;4.70;99.90;;;;;;5080144;28;20117;-69
2021/12/04 03:05:28;;;;;;;275.70;52.92;;;4.70;99.90;;;;;;5080187;28;20066;-69
2021/12/04 03:07:57;;;;;;;300.30;54.13;;;4.70;99.90;;;;;;5080533;28;20082;-69
2021/12/04 03:10:24;;;;;;;275.40;52.88;;;4.70;99.90;;;;;;5097066;28;20524;-69
2021/12/04 03:12:50;;;;;;;282.92;53.85;;;4.70;99.90;;;;;;5096870;28;20088;-68
2021/12/04 03:15:17;;;;;;;217.32;45.63;;;4.70;99.90;;;;;;5096761;28;20059;-69
2021/12/04 03:17:43;;;;;;;244.13;51.45;;;4.70;99.90;;;;;;5115557;28;20054;-69
2021/12/04 03:20:10;;;;;;;226.43;47.67;;;4.70;99.90;;;;;;5096454;28;20047;-69
2021/12/04 03:22:40;;;;;;;283.58;54.53;;;4.70;99.90;;;;;;5096457;28;20144;-69
2021/12/04 03:25:06;;;;;;;258.33;52.10;;;4.70;99.90;;;;;;5080448;28;20138;-70
2021/12/04 03:27:33;;;;;;;304.77;55.70;;;4.70;99.90;;;;;;5114784;28;20066;-70
2021/12/04 03:30:04;;;;;;;279.73;51.28;;;4.60;99.90;;;;;;5079735;28;20051;-70
2021/12/04 03:35:21;;;;;;;275.02;50.13;;;4.70;99.90;;;;;;5096722;28;20043;-70
2021/12/04 03:43:00;;;;;;;293.27;52.35;;;4.60;99.90;;;;;;5082010;28;20051;-70
2021/12/04 03:45:26;;;;;;;298.85;53.25;;;4.60;99.90;;;;;;5096328;28;20047;-70
2021/12/04 03:47:56;;;;;;;245.52;48.67;;;4.60;99.90;;;;;;5096318;28;20059;-70
2021/12/04 03:50:22;;;;;;;305.45;55.90;;;4.60;99.90;;;;;;5097217;28;20402;-71
2021/12/04 03:52:48;;;;;;;310.98;53.15;;;4.70;99.90;;;;;;5114517;28;20055;-70
2021/12/04 03:55:14;;;;;;;265.75;50.80;;;4.60;99.90;;;;;;5114731;28;20055;-70
2021/12/04 03:57:44;;;;;;;338.42;57.47;;;4.70;99.90;;;;;;5079213;28;20079;-69
2021/12/04 04:00:12;;;;;;;295.38;54.85;;;4.70;99.90;;;;;;5114343;28;20407;-70
2021/12/04 04:02:38;;;;;;;289.50;53.47;;;4.70;99.90;;;;;;5096175;28;20051;-70
2021/12/04 04:05:05;;;;;;;312.38;55.80;;;4.70;99.90;;;;;;5095882;28;20376;-70
2021/12/04 04:07:31;;;;;;;249.20;51.25;;;4.70;99.90;;;;;;5079079;28;20055;-70
2021/12/04 04:09:57;;;;;;;327.42;59.15;;;4.70;99.90;;;;;;5095837;28;20052;-70
2021/12/04 04:12:24;;;;;;;279.25;55.42;;;4.70;99.90;;;;;;5079023;28;20055;-69
2021/12/04 04:14:50;;;;;;;244.13;50.58;;;4.70;99.90;;;;;;5078761;28;20126;-70
2021/12/04 04:17:16;;;;;;;246.88;51.85;;;4.60;99.90;;;;;;5078985;28;20159;-70
2021/12/04 04:19:42;;;;;;;232.57;50.45;;;4.60;99.90;;;;;;5095723;28;20050;-69
2021/12/04 04:22:08;;;;;;;247.90;49.35;;;4.60;99.90;;;;;;5095561;28;20079;-70
2021/12/04 04:24:34;;;;;;;219.07;47.45;;;4.60;99.90;;;;;;5079053;28;20059;-70
2021/12/04 04:27:00;;;;;;;225.77;45.78;;;4.70;99.90;;;;;;5095660;28;20668;-70
2021/12/04 04:29:26;;;;;;;229.57;47.20;;;4.60;99.90;;;;;;5078206;28;20503;-70
2021/12/04 04:31:55;;;;;;;196.02;43.22;;;4.60;99.90;;;;;;5078688;28;20100;-70
2021/12/04 04:34:31;;;;;;;205.75;45.22;;;4.60;99.90;;;;;;5095439;28;20059;-69
2021/12/04 05:01:58;;;;;;;171.73;42.80;;;4.60;99.90;;;;;;5094701;28;20063;-70
2021/12/04 05:15:16;;;;;;;172.02;40.75;;;4.60;99.90;;;;;;5094594;28;20138;-70
2021/12/04 05:17:55;;;;;;;162.90;40.28;;;4.60;99.90;;;;;;5093682;28;20054;-70
2021/12/04 05:20:25;;;;;;;176.75;42.58;;;4.60;99.90;;;;;;5077575;28;20056;-69
2021/12/04 05:22:51;;;;;;;151.35;38.00;;;4.60;99.90;;;;;;5094427;28;20056;-70
2021/12/04 05:25:18;;;;;;;163.05;38.90;;;4.60;99.90;;;;;;5093619;28;20043;-70
2021/12/04 05:27:45;;;;;;;146.25;36.17;;;4.70;99.90;;;;;;5094317;28;20410;-70
2021/12/04 05:30:10;;;;;;;138.50;36.13;;;4.60;99.90;;;;;;5094428;28;20055;-70
2021/12/04 05:32:36;;;;;;;133.98;35.75;;;4.60;99.90;;;;;;5094403;28;20052;-70
2021/12/04 05:35:02;;;;;;;126.13;32.38;;;4.60;99.90;;;;;;5077371;28;20074;-70
2021/12/04 05:37:28;;;;;;;149.43;36.08;;;4.60;99.90;;;;;;5077416;28;20134;-70
2021/12/04 05:39:54;;;;;;;135.73;35.00;;;4.60;99.90;;;;;;5060955;28;20044;-70
2021/12/04 05:42:20;;;;;;;110.63;31.63;;;4.60;99.90;;;;;;5094125;28;20095;-70
2021/12/04 05:44:46;;;;;;;116.68;33.03;;;4.60;99.90;;;;;;5094062;28;20044;-69
2021/12/04 05:47:22;;;;;;;127.10;32.83;;;4.60;99.90;;;;;;5093439;28;20063;-70
2021/12/04 05:55:22;;;;;;;128.02;33.92;;;4.60;99.90;;;;;;5012668;28;20056;-70
2021/12/04 05:57:48;;;;;;;125.90;32.72;;;4.60;99.90;;;;;;5013168;28;20065;-69
2021/12/04 06:00:18;;;;;;;129.57;33.33;;;4.60;99.90;;;;;;5012859;28;20413;-70
2021/12/04 06:02:44;;;;;;;125.43;33.28;;;4.70;99.90;;;;;;4996540;28;20053;-69
2021/12/04 06:05:10;;;;;;;126.15;33.13;;;4.70;99.90;;;;;;5013099;28;20631;-70
2021/12/04 06:07:36;;;;;;;142.95;33.83;;;4.70;99.90;;;;;;5012765;28;20188;-70
2021/12/04 06:10:05;;;;;;;144.77;33.70;;;4.70;99.90;;;;;;4996114;28;20136;-69
2021/12/04 06:12:31;;;;;;;141.40;36.33;;;4.70;99.90;;;;;;5012337;28;20140;-69
2021/12/04 06:14:57;;;;;;;140.77;35.00;;;4.70;99.90;;;;;;5012684;28;20053;-69
2021/12/04 06:17:24;;;;;;;136.25;33.53;;;4.60;99.90;;;;;;5012618;28;20504;-69
2021/12/04 06:22:44;;;;;;;150.50;33.58;;;4.60;99.90;;;;;;5012602;28;20609;-69
2021/12/04 06:25:15;;;;;;;140.32;34.45;;;4.60;99.90;;;;;;5021136;28;20136;-69
2021/12/04 06:27:42;;;;;;;143.80;33.70;;;4.60;99.90;;;;;;5091853;28;20056;-69
2021/12/04 06:30:12;;;;;;;143.00;35.15;;;4.60;99.90;;;;;;5078721;28;20104;-69
2021/12/04 06:32:39;;;;;;;136.65;35.40;;;4.60;99.90;;;;;;5097179;28;20043;-70
2021/12/04 06:35:08;;;;;;;147.60;37.28;;;4.60;99.90;;;;;;5097553;28;20050;-69
2021/12/04 06:37:34;;;;;;;155.30;34.80;;;4.60;99.90;;;;;;5080207;28;20055;-67
2021/12/04 06:40:00;;;;;;;154.68;34.97;;;4.60;99.90;;;;;;5095760;28;20052;-70
2021/12/04 06:42:26;;;;;;;128.40;32.22;;;4.60;99.90;;;;;;5095748;28;20506;-69
2021/12/04 06:44:55;;;;;;;144.85;35.58;;;4.60;99.90;;;;;;5078900;28;20040;-69
2021/12/04 06:47:21;;;;;;;121.15;33.00;;;4.60;99.90;;;;;;5096325;28;20083;-70
2021/12/04 06:49:50;;;;;;;151.13;35.25;;;4.60;99.90;;;;;;5079003;28;20043;-69
2021/12/04 06:52:20;;;;;;;126.15;31.05;;;4.60;99.90;;;;;;5062280;28;20053;-67
2021/12/04 06:54:55;;;;;;;142.20;34.85;;;4.60;99.90;;;;;;5095218;28;20868;-69
2021/12/04 06:57:22;;;;;;;133.90;34.17;;;4.60;99.90;;;;;;5095823;28;20674;-68
2021/12/04 06:59:49;;;;;;;146.30;34.47;;;4.60;99.90;;;;;;5062032;28;20054;-69
2021/12/04 07:02:15;;;;;;;133.48;32.20;;;4.60;99.90;;;;;;5078473;28;20059;-69
2021/12/04 07:04:41;;;;;;;135.95;32.88;;;4.60;99.90;;;;;;5095897;28;20412;-69
2021/12/04 07:07:09;;;;;;;170.80;34.08;;;4.60;99.90;;;;;;5078956;28;20082;-69
2021/12/04 07:09:39;;;;;;;170.30;35.22;;;4.60;99.90;;;;;;5095491;28;20047;-69
2021/12/04 07:12:05;;;;;;;169.05;34.72;;;4.60;99.90;;;;;;5061481;28;20104;-69
2021/12/04 07:14:32;;;;;;;180.27;37.38;;;4.60;99.90;;;;;;5078434;28;20048;-69
2021/12/04 07:17:01;;;;;;;167.23;34.42;;;4.60;99.90;;;;;;5113872;28;20047;-69
2021/12/04 07:19:27;;;;;;;194.35;38.15;;;4.60;99.90;;;;;;5095739;28;20456;-69
2021/12/04 07:21:53;;;;;;;155.27;34.92;;;4.60;99.90;;;;;;5095595;28;20043;-71
2021/12/04 07:24:19;;;;;;;167.90;36.08;;;4.60;99.90;;;;;;5095246;28;20047;-67
2021/12/04 07:26:46;;;;;;;150.93;33.97;;;4.60;99.90;;;;;;5095168;28;20134;-68
2021/12/04 07:29:12;;;;;;;175.18;37.25;;;4.60;99.90;;;;;;5079978;28;20063;-67
2021/12/04 07:31:38;;;;;;;204.85;38.00;;;4.60;99.90;;;;;;5074886;28;20040;-66
2021/12/04 07:34:05;;;;;;;208.40;39.22;;;4.60;99.90;;;;;;5058207;28;20052;-66
2021/12/04 07:36:35;;;;;;;157.90;34.78;;;4.60;99.90;;;;;;5058146;28;20132;-66
2021/12/04 07:39:29;;;;;;;205.68;39.88;;;4.60;99.90;;;;;;5042948;28;20599;-66
2021/12/04 07:41:55;;;;;;;161.50;34.72;;;4.60;99.90;;;;;;4996042;28;20420;-67
2021/12/04 07:44:21;;;;;;;173.35;34.95;;;4.60;99.90;;;;;;5033044;28;20610;-67
2021/12/04 07:46:47;;;;;;;190.95;37.25;;;4.60;99.90;;;;;;5017368;28;20103;-67
2021/12/04 07:49:14;;;;;;;152.27;34.35;;;4.60;99.90;;;;;;5017032;28;20052;-67
2021/12/04 07:51:40;;;;;;;165.05;33.90;;;4.60;99.90;;;;;;5016835;28;20107;-67
2021/12/04 07:54:06;;;;;;;202.80;38.80;;;4.60;99.90;;;;;;5033067;28;20057;-67
2021/12/04 07:56:32;;;;;;;200.63;36.53;;;4.60;99.90;;;;;;5049967;28;20059;-66
2021/12/04 07:58:59;;;;;;;194.27;37.90;;;4.60;99.90;;;;;;5033146;28;20059;-67
2021/12/04 08:01:25;;;;;;;221.07;42.42;;;4.60;99.90;;;;;;5016621;28;20614;-67
2021/12/04 08:03:51;;;;;;;217.48;39.63;;;4.60;99.90;;;;;;5033093;28;20439;-71
2021/12/04 08:06:17;;;;;;;239.68;41.97;;;4.60;99.90;;;;;;5049874;28;20045;-68
2021/12/04 08:08:43;;;;;;;207.68;38.85;;;4.70;99.90;;;;;;5032880;28;20552;-66
2021/12/04 08:11:09;;;;;;;210.48;39.58;;;4.60;99.90;;;;;;5032647;28;20060;-69
2021/12/04 08:13:35;;;;;;;228.50;40.25;;;4.60;99.90;;;;;;5016375;28;20049;-65
2021/12/04 08:16:00;;;;;;;205.68;40.85;;;4.60;99.90;;;;;;5016091;28;20048;-67
2021/12/04 08:18:26;;;;;;;185.18;38.30;;;4.60;99.90;;;;;;5016313;28;20049;-66
2021/12/04 08:20:55;;;;;;;224.05;39.90;;;4.70;99.90;;;;;;5016632;28;20053;-66
2021/12/04 08:23:21;;;;;;;224.07;41.30;;;4.60;99.90;;;;;;5032489;28;20443;-66
2021/12/04 08:25:47;;;;;;;170.52;36.28;;;4.60;99.90;;;;;;5033147;28;20457;-68
2021/12/04 08:28:14;;;;;;;185.32;34.45;;;4.70;99.90;;;;;;5022254;28;20531;-68
2021/12/04 08:30:45;;;;;;;201.43;38.88;;;4.70;99.90;;;;;;5052914;28;20134;-71
2021/12/04 08:33:12;;;;;;;162.82;38.58;;;4.60;99.90;;;;;;5052720;28;20155;-67
2021/12/04 08:35:39;;;;;;;163.93;34.70;;;4.70;99.90;;;;;;5052843;28;20097;-70
2021/12/04 08:38:08;;;;;;;156.80;34.95;;;4.70;99.90;;;;;;5041193;28;20048;-69
2021/12/04 08:40:34;;;;;;;131.07;33.78;;;4.70;99.90;;;;;;5092147;28;20123;-69
2021/12/04 08:43:04;;;;;;;145.27;35.72;;;4.70;99.90;;;;;;5056751;28;20052;-70
2021/12/04 08:45:30;;;;;;;130.85;29.40;;;4.70;99.90;;;;;;5107447;28;20113;-68
2021/12/04 08:47:57;;;;;;;130.80;32.20;;;4.70;99.90;;;;;;5073893;28;20535;-69
2021/12/04 08:50:25;;;;;;;139.05;37.85;;;4.70;99.90;;;;;;5092066;28;20123;-69
2021/12/04 08:52:54;;;;;;;117.95;31.95;;;4.70;99.90;;;;;;5073898;28;20637;-68
2021/12/04 08:55:21;;;;;;;137.88;34.15;;;4.70;99.90;;;;;;5074377;28;20059;-68
2021/12/04 08:57:48;;;;;;;121.05;30.48;;;4.70;99.90;;;;;;5092962;28;20048;-69
2021/12/04 09:00:26;;;;;;;114.30;33.67;;;4.70;99.90;;;;;;5038861;28;20056;-69
2021/12/04 09:02:58;;;;;;;124.75;33.10;;;4.70;99.90;;;;;;5070174;28;20056;-69
2021/12/04 09:05:29;;;;;;;125.72;35.35;;;4.70;99.90;;;;;;5021722;28;20048;-67
2021/12/04 09:07:58;;;;;;;116.60;30.17;;;4.80;99.90;;;;;;5053257;28;20053;-69
2021/12/04 09:10:25;;;;;;;100.10;27.75;;;4.80;99.90;;;;;;5036942;28;20064;-68
2021/12/04 09:12:52;;;;;;;113.22;28.30;;;4.80;99.90;;;;;;5020382;28;20146;-69
2021/12/04 09:15:25;;;;;;;115.82;32.70;;;4.80;99.90;;;;;;5036083;28;20101;-69
2021/12/04 09:17:51;;;;;;;101.53;27.55;;;4.80;99.90;;;;;;5020898;28;20072;-68
2021/12/04 09:20:17;;;;;;;115.35;28.88;;;4.80;99.90;;;;;;5070027;28;20087;-67
2021/12/04 09:22:47;;;;;;;104.85;27.95;;;4.80;99.90;;;;;;5052798;28;20055;-67
2021/12/04 09:25:17;;;;;;;108.60;27.35;;;4.90;99.90;;;;;;5036893;28;20131;-68
2021/12/04 09:36:25;;;;;;;97.05;27.33;;;4.80;99.90;;;;;;5117001;27;20058;-68
2021/12/04 10:32:25;;;;;;;84.38;26.05;;;4.90;99.90;;;;;;5093456;28;20056;-68
2021/12/04 10:34:52;;;;;;;76.45;23.38;;;4.90;99.90;;;;;;5093362;28;20047;-68
2021/12/04 10:37:24;;;;;;;67.05;23.17;;;4.90;99.90;;;;;;5093654;28;20043;-68
2021/12/04 10:40:07;;;;;;;71.63;24.58;;;4.90;99.90;;;;;;5093529;28;20098;-68
2021/12/04 10:42:54;;;;;;;77.20;24.50;;;4.90;99.90;;;;;;5092711;28;20431;-67
2021/12/04 10:45:32;;;;;;;65.32;22.00;;;4.90;99.90;;;;;;5093388;28;20159;-68
2021/12/04 10:48:00;;;;;;;66.82;22.98;;;4.90;99.90;;;;;;5093385;28;20414;-67
2021/12/04 10:53:03;;;;;;;69.47;22.63;;;5.00;99.90;;;;;;5093358;28;20521;-68
2021/12/04 10:55:46;;;;;;;75.97;21.73;;;4.90;99.90;;;;;;5093385;28;20047;-67
2021/12/04 11:07:02;;;;;;;60.85;19.83;;;5.00;99.90;;;;;;5093346;28;20055;-67
2021/12/04 11:40:59;;;;;;;40.08;15.63;;;5.00;99.90;;;;;;4919056;29;20558;-68
2021/12/04 11:43:35;;;;;;;34.30;14.25;;;5.00;99.90;;;;;;4905198;29;20061;-68
2021/12/04 11:46:18;;;;;;;33.28;14.20;;;5.00;99.90;;;;;;4918893;29;20131;-68
2021/12/04 11:48:44;;;;;;;29.35;14.90;;;5.00;99.90;;;;;;4918627;29;20066;-68
2021/12/04 11:51:22;;;;;;;32.95;14.68;;;5.00;99.90;;;;;;4950460;28;20042;-68
2021/12/04 11:53:50;;;;;;;31.45;14.52;;;5.00;99.90;;;;;;4976007;28;20058;-68
2021/12/04 11:56:27;;;;;;;27.33;13.45;;;5.00;99.90;;;;;;4992349;28;20444;-68
2021/12/04 11:58:54;;;;;;;27.52;14.43;;;5.10;99.90;;;;;;4979710;28;20089;-68
2021/12/04 12:01:33;;;;;;;31.17;14.35;;;5.00;99.90;;;;;;5015101;28;20486;-68
2021/12/04 12:04:12;;;;;;;26.08;13.02;;;5.00;99.90;;;;;;5014353;28;20060;-68
2021/12/04 12:06:51;;;;;;;30.05;14.15;;;5.00;99.90;;;;;;5014284;28;20058;-67
2021/12/04 12:09:39;;;;;;;29.05;14.27;;;5.10;99.90;;;;;;5087661;28;20051;-68
2021/12/04 12:12:34;;;;;;;32.53;14.57;;;5.00;99.90;;;;;;5095114;28;20048;-68
2021/12/04 12:15:05;;;;;;;29.15;14.57;;;5.10;99.90;;;;;;5114213;28;20094;-68
2021/12/04 12:17:31;;;;;;;32.33;15.15;;;5.10;99.90;;;;;;5114111;28;20241;-68
2021/12/04 12:19:58;;;;;;;35.03;15.00;;;5.10;99.90;;;;;;5078633;28;20138;-68
2021/12/04 12:22:35;;;;;;;31.15;14.10;;;5.10;99.90;;;;;;5095569;28;20048;-68
2021/12/04 12:36:10;;;;;;;31.90;13.88;;;5.10;99.90;;;;;;5095700;28;20059;-68
2021/12/04 12:38:44;;;;;;;33.75;14.93;;;5.10;99.90;;;;;;5077442;28;20091;-68
2021/12/04 12:41:34;;;;;;;33.70;14.47;;;5.10;99.90;;;;;;5095053;28;20082;-68
2021/12/04 12:44:09;;;;;;;33.63;14.93;;;5.20;99.90;;;;;;5078081;28;20051;-68
2021/12/04 12:46:35;;;;;;;;;;;5.20;99.90;;;;;;5078545;28;20051;-68
2021/12/04 12:49:03;;;;;;;34.80;14.60;;;5.20;99.90;;;;;;5077914;28;20006;-68
2021/12/04 12:51:34;;;;;;;32.17;14.07;;;5.20;99.90;;;;;;5094949;28;20100;-68
2021/12/04 12:54:04;;;;;;;33.75;14.02;;;5.20;99.90;;;;;;5078225;28;20089;-68
2021/12/04 12:56:33;;;;;;;32.15;15.52;;;5.30;99.90;;;;;;5094647;28;20051;-68
2021/12/04 12:59:05;;;;;;;28.85;12.95;;;5.30;99.90;;;;;;5077197;28;20044;-68
2021/12/04 13:12:58;;;;;;;27.77;13.60;;;5.30;99.90;;;;;;5066692;28;20047;-68
2021/12/04 13:15:35;;;;;;;37.08;14.32;;;5.30;99.90;;;;;;5077234;28;20063;-68
2021/12/04 13:18:21;;;;;;;27.38;13.82;;;5.30;99.90;;;;;;5094635;28;20047;-68
2021/12/04 13:20:47;;;;;;;30.13;13.68;;;5.30;99.90;;;;;;5113124;28;20180;-68
2021/12/04 13:23:16;;;;;;;35.65;16.17;;;5.30;99.90;;;;;;5094461;28;20052;-67
2021/12/04 13:25:49;;;;;;;31.30;14.27;;;5.30;99.90;;;;;;5094109;28;20407;-68
2021/12/04 13:28:24;;;;;;;35.72;14.90;;;5.30;99.90;;;;;;5077423;28;20090;-68
2021/12/04 13:30:50;;;;;;;30.38;15.43;;;5.30;99.90;;;;;;5094758;28;20043;-68
2021/12/04 13:33:16;;;;;;;32.97;16.52;;;5.30;99.90;;;;;;5077778;28;20522;-68
2021/12/04 13:35:47;;;;;;;35.30;14.70;;;5.30;99.90;;;;;;5112916;28;20053;-68
2021/12/04 13:38:15;;;;;;;36.90;14.77;;;5.30;99.90;;;;;;5060698;28;20040;-68
2021/12/04 13:40:48;;;;;;;35.33;16.10;;;5.30;99.90;;;;;;5060884;28;20070;-67
2021/12/04 13:43:18;;;;;;;36.72;15.40;;;5.30;99.90;;;;;;5078063;28;20517;-68
2021/12/04 13:45:54;;;;;;;36.45;15.43;;;5.30;99.90;;;;;;5077529;28;20062;-68
2021/12/04 13:48:20;;;;;;;37.00;16.33;;;5.30;99.90;;;;;;5061285;28;20074;-67
2021/12/04 13:50:45;;;;;;;39.95;16.58;;;5.30;99.90;;;;;;5094127;28;20553;-68
2021/12/04 13:53:28;;;;;;;36.17;15.25;;;5.30;99.90;;;;;;5076624;28;20087;-68
2021/12/04 13:56:05;;;;;;;38.88;16.08;;;5.30;99.90;;;;;;5112545;28;20043;-68
2021/12/04 13:58:32;;;;;;;46.65;17.92;;;5.30;99.90;;;;;;5112487;28;20058;-68
2021/12/04 14:01:00;;;;;;;45.42;18.17;;;5.30;99.90;;;;;;5077124;28;20059;-67
2021/12/04 14:03:28;;;;;;;40.72;17.42;;;5.30;99.90;;;;;;5112336;28;20047;-68
2021/12/04 14:05:54;;;;;;;43.80;16.77;;;5.30;99.90;;;;;;5093153;28;20093;-68
2021/12/04 14:08:20;;;;;;;46.05;19.08;;;5.30;99.90;;;;;;5077267;28;20134;-68
2021/12/04 14:10:47;;;;;;;41.38;17.25;;;5.30;99.90;;;;;;5059583;28;20404;-67
2021/12/04 14:13:16;;;;;;;44.25;17.08;;;5.30;99.90;;;;;;5076116;28;20051;-68
2021/12/04 14:15:47;;;;;;;46.63;18.08;;;5.30;99.90;;;;;;5093817;28;20055;-68
2021/12/04 14:18:17;;;;;;;48.40;19.83;;;5.30;99.90;;;;;;5077411;28;20056;-67
2021/12/04 14:20:48;;;;;;;44.78;17.63;;;5.30;99.90;;;;;;5093705;28;20498;-69
2021/12/04 14:23:14;;;;;;;45.90;17.75;;;5.30;99.90;;;;;;5060461;28;20051;-67
2021/12/04 14:25:45;;;;;;;45.42;18.20;;;5.30;99.90;;;;;;5093707;28;20072;-67
2021/12/04 14:28:19;;;;;;;42.28;17.15;;;5.30;99.90;;;;;;5093898;28;20056;-67
2021/12/04 14:30:47;;;;;;;46.53;17.52;;;5.30;99.90;;;;;;5093643;28;20054;-67
2021/12/04 14:33:18;;;;;;;40.53;17.63;;;5.30;99.90;;;;;;5093817;28;20134;-67
2021/12/04 14:35:46;;;;;;;43.83;17.98;;;5.30;99.90;;;;;;5076384;28;20047;-67
2021/12/04 14:38:16;;;;;;;48.13;17.35;;;5.30;99.90;;;;;;5075816;28;20044;-67
2021/12/04 14:40:44;;;;;;;42.75;16.73;;;5.30;99.90;;;;;;5076454;28;20406;-67
2021/12/04 14:43:24;;;;;;;46.60;17.83;;;5.30;99.90;;;;;;5093017;28;20083;-67
2021/12/04 14:45:54;;;;;;;40.58;16.90;;;5.30;99.90;;;;;;5043612;28;20503;-67
2021/12/04 14:48:34;;;;;;;48.58;17.67;;;5.20;99.90;;;;;;5060355;28;20067;-67
2021/12/04 14:51:05;;;;;;;48.60;19.50;;;5.20;99.90;;;;;;5094977;28;20048;-67
2021/12/04 14:53:34;;;;;;;48.80;17.90;;;5.30;99.90;;;;;;5097471;28;20074;-67
2021/12/04 14:56:03;;;;;;;45.08;18.33;;;5.20;99.90;;;;;;5097784;28;20039;-67
2021/12/04 14:58:28;;;;;;;44.20;17.17;;;5.20;99.90;;;;;;5080443;28;20043;-67
2021/12/04 15:01:01;;;;;;;39.65;16.08;;;5.20;99.90;;;;;;5097650;28;20082;-68
2021/12/04 15:03:37;;;;;;;43.95;15.90;;;5.20;99.90;;;;;;5096960;28;20043;-67
2021/12/04 15:06:06;;;;;;;42.03;18.40;;;5.20;99.90;;;;;;5097459;28;20120;-67
2021/12/04 15:08:39;;;;;;;42.58;16.52;;;5.20;99.90;;;;;;5096931;28;20101;-67
2021/12/04 15:11:06;;;;;;;49.92;18.33;;;5.20;99.90;;;;;;5096816;28;20048;-67
2021/12/04 15:13:41;;;;;;;45.72;16.83;;;5.20;99.90;;;;;;5079455;28;20502;-67
2021/12/04 15:16:10;;;;;;;47.40;16.52;;;5.20;99.90;;;;;;5097028;28;20051;-67
2021/12/04 15:18:39;;;;;;;49.30;16.95;;;5.20;99.90;;;;;;5096737;28;20063;-67
2021/12/04 15:21:14;;;;;;;43.53;17.02;;;5.10;99.90;;;;;;5097128;28;20417;-67
2021/12/04 15:23:40;;;;;;;44.53;17.52;;;5.10;99.90;;;;;;5079271;28;20051;-67
2021/12/04 15:26:18;;;;;;;47.58;17.23;;;5.20;99.90;;;;;;5096424;28;20055;-67
2021/12/04 15:28:49;;;;;;;44.35;16.52;;;5.10;99.90;;;;;;5079079;28;20406;-67
2021/12/04 15:31:15;;;;;;;51.20;18.45;;;5.20;99.90;;;;;;5115217;28;20052;-66
2021/12/04 15:33:46;;;;;;;51.60;18.67;;;5.20;99.90;;;;;;5079805;28;20054;-67
2021/12/04 15:36:49;;;;;;;51.80;18.20;;;5.10;99.90;;;;;;5079791;28;20132;-67
2021/12/04 15:39:32;;;;;;;49.88;18.70;;;5.10;99.90;;;;;;5096100;28;20079;-67
2021/12/04 15:42:30;;;;;;;57.95;19.42;;;5.10;99.90;;;;;;5068292;28;20051;-67
2021/12/04 15:47:43;;;;;;;60.25;20.75;;;5.10;99.90;;;;;;5063562;28;20058;-67
2021/12/04 15:53:23;;;;;;;58.72;19.17;;;5.10;99.90;;;;;;5068382;28;20051;-67
2021/12/04 15:55:54;;;;;;;58.55;19.65;;;5.10;99.90;;;;;;5079651;28;20054;-67
2021/12/04 15:58:32;;;;;;;70.25;20.77;;;5.10;99.90;;;;;;5046064;28;20047;-67